createdAt,value
2019-01-28T00:00:34.279Z,8.50
2019-01-28T00:01:34.246Z,11.60
2019-01-28T00:02:34.238Z,8.00
2019-01-28T00:03:34.268Z,10.50
2019-01-28T00:04:34.237Z,8.90
2019-01-28T00:05:34.231Z,8.70
2019-01-28T00:06:34.229Z,5.70
2019-01-28T00:07:34.194Z,8.40
2019-01-28T00:08:34.165Z,7.10
2019-01-28T00:09:34.160Z,7.70
2019-01-28T00:10:34.155Z,8.90
2019-01-28T00:11:34.130Z,7.60
2019-01-28T00:12:34.128Z,7.70
2019-01-28T00:13:34.111Z,7.40
2019-01-28T00:14:34.095Z,8.10
2019-01-28T00:15:34.129Z,7.90
2019-01-28T00:16:34.071Z,6.30
2019-01-28T00:17:34.082Z,6.30
2019-01-28T00:18:34.054Z,6.30
2019-01-28T00:19:34.039Z,7.00
2019-01-28T00:20:34.032Z,6.50
2019-01-28T00:21:34.059Z,7.50
2019-01-28T00:22:34.003Z,6.90
2019-01-28T00:23:34.032Z,7.20
2019-01-28T00:24:33.991Z,6.10
2019-01-28T00:25:33.997Z,4.30
2019-01-28T00:26:33.960Z,5.80
2019-01-28T00:27:33.964Z,7.60
2019-01-28T00:28:33.950Z,6.70
2019-01-28T00:29:33.956Z,10.10
2019-01-28T00:30:33.921Z,5.40
2019-01-28T00:31:33.917Z,7.00
2019-01-28T00:32:33.897Z,4.50
2019-01-28T00:33:33.916Z,5.30
2019-01-28T00:34:33.917Z,5.70
2019-01-28T00:35:33.876Z,5.70
2019-01-28T00:36:33.852Z,6.30
2019-01-28T00:37:33.840Z,5.70
2019-01-28T00:38:33.846Z,6.10
2019-01-28T00:39:33.834Z,5.80
2019-01-28T00:40:33.825Z,5.50
2019-01-28T00:41:33.795Z,7.60
2019-01-28T00:42:33.801Z,5.20
2019-01-28T00:43:33.796Z,7.40
2019-01-28T00:44:33.764Z,7.90
2019-01-28T00:45:33.795Z,7.80
2019-01-28T00:46:33.757Z,7.60
2019-01-28T00:47:33.750Z,5.40
2019-01-28T00:48:33.748Z,5.80
2019-01-28T00:49:41.263Z,6.10
2019-01-28T00:50:33.700Z,5.00
2019-01-28T00:51:33.698Z,5.40
2019-01-28T00:52:33.739Z,6.50
2019-01-28T00:53:33.689Z,4.70
2019-01-28T00:54:33.656Z,6.60
2019-01-28T00:55:33.638Z,6.30
2019-01-28T00:56:33.628Z,6.40
2019-01-28T00:57:33.621Z,7.70
2019-01-28T00:58:33.637Z,5.30
2019-01-28T00:59:33.599Z,5.70
2019-01-28T01:00:33.608Z,5.20
2019-01-28T01:01:33.570Z,4.50
2019-01-28T01:02:33.560Z,6.30
2019-01-28T01:03:33.553Z,5.20
2019-01-28T01:04:33.576Z,4.90
2019-01-28T01:05:33.529Z,4.90
2019-01-28T01:06:33.550Z,5.10
2019-01-28T01:07:33.505Z,5.30
2019-01-28T01:08:33.492Z,6.20
2019-01-28T01:09:33.532Z,6.90
2019-01-28T01:10:33.492Z,6.70
2019-01-28T01:11:33.465Z,4.60
2019-01-28T01:12:33.451Z,6.00
2019-01-28T01:13:33.442Z,8.20
2019-01-28T01:14:33.425Z,6.40
2019-01-28T01:15:33.432Z,4.80
2019-01-28T01:16:33.405Z,6.00
2019-01-28T01:17:33.404Z,4.40
2019-01-28T01:18:33.424Z,4.60
2019-01-28T01:19:33.398Z,4.80
2019-01-28T01:20:33.382Z,6.50
2019-01-28T01:21:33.366Z,6.60
2019-01-28T01:22:33.348Z,5.80
2019-01-28T01:23:33.337Z,6.60
2019-01-28T01:24:33.317Z,5.60
2019-01-28T01:25:33.340Z,6.30
2019-01-28T01:26:33.314Z,5.50
2019-01-28T01:27:33.298Z,6.30
2019-01-28T01:28:33.272Z,6.20
2019-01-28T01:29:33.305Z,5.10
2019-01-28T01:30:33.252Z,7.40
2019-01-28T01:31:33.241Z,6.20
2019-01-28T01:32:33.271Z,6.40
2019-01-28T01:33:33.237Z,6.40
2019-01-28T01:34:33.209Z,6.40
2019-01-28T01:35:33.206Z,6.30
2019-01-28T01:36:33.205Z,6.20
2019-01-28T01:37:33.173Z,6.40
2019-01-28T01:38:33.195Z,6.80
2019-01-28T01:39:33.182Z,8.10
2019-01-28T01:40:33.170Z,6.50
2019-01-28T01:41:33.137Z,5.20
2019-01-28T01:42:33.150Z,4.10
2019-01-28T01:43:33.126Z,6.40
2019-01-28T01:44:33.119Z,5.60
2019-01-28T01:45:33.083Z,7.10
2019-01-28T01:46:33.113Z,7.30
2019-01-28T01:47:33.081Z,6.50
2019-01-28T01:48:33.051Z,6.40
2019-01-28T01:49:33.043Z,4.20
2019-01-28T01:50:33.044Z,6.50
2019-01-28T01:51:33.020Z,6.60
2019-01-28T01:52:33.034Z,5.70
2019-01-28T01:53:33.000Z,5.10
2019-01-28T01:54:32.985Z,5.30
2019-01-28T01:55:32.974Z,6.60
2019-01-28T01:56:32.962Z,4.70
2019-01-28T01:57:32.969Z,3.90
2019-01-28T01:58:32.955Z,5.50
2019-01-28T01:59:32.955Z,4.60
2019-01-28T02:00:32.917Z,4.10
2019-01-28T02:01:32.925Z,4.90
2019-01-28T02:02:33.532Z,4.30
2019-01-28T02:03:32.886Z,6.00
2019-01-28T02:04:32.887Z,5.70
2019-01-28T02:05:32.878Z,6.20
2019-01-28T02:06:32.852Z,5.60
2019-01-28T02:07:32.839Z,3.60
2019-01-28T02:08:32.833Z,4.00
2019-01-28T02:09:32.851Z,4.60
2019-01-28T02:10:32.834Z,5.10
2019-01-28T02:11:32.800Z,6.10
2019-01-28T02:12:32.808Z,5.30
2019-01-28T02:13:32.795Z,6.10
2019-01-28T02:14:32.761Z,3.90
2019-01-28T02:15:32.773Z,4.40
2019-01-28T02:16:32.736Z,3.90
2019-01-28T02:17:32.725Z,4.70
2019-01-28T02:18:32.718Z,2.70
2019-01-28T02:19:32.709Z,4.10
2019-01-28T02:20:32.747Z,4.10
2019-01-28T02:21:32.719Z,3.90
2019-01-28T02:22:32.681Z,3.80
2019-01-28T02:23:32.658Z,2.80
2019-01-28T02:24:32.648Z,3.40
2019-01-28T02:25:32.637Z,3.30
2019-01-28T02:26:32.642Z,3.10
2019-01-28T02:27:32.615Z,3.30
2019-01-28T02:28:32.603Z,3.90
2019-01-28T02:29:32.638Z,2.80
2019-01-28T02:30:32.602Z,3.70
2019-01-28T02:31:32.570Z,4.00
2019-01-28T02:32:32.559Z,4.50
2019-01-28T02:33:32.567Z,4.40
2019-01-28T02:34:32.564Z,3.80
2019-01-28T02:35:32.525Z,3.20
2019-01-28T02:36:32.549Z,3.80
2019-01-28T02:37:32.524Z,4.60
2019-01-28T02:38:32.519Z,4.20
2019-01-28T02:39:32.485Z,3.50
2019-01-28T02:40:32.475Z,2.70
2019-01-28T02:41:32.461Z,4.40
2019-01-28T02:42:32.464Z,3.20
2019-01-28T02:43:32.448Z,4.10
2019-01-28T02:44:32.447Z,4.00
2019-01-28T02:45:32.453Z,6.90
2019-01-28T02:46:32.409Z,3.80
2019-01-28T02:47:32.436Z,3.90
2019-01-28T02:48:32.408Z,4.30
2019-01-28T02:49:32.383Z,3.30
2019-01-28T02:50:32.363Z,3.40
2019-01-28T02:51:32.348Z,3.20
2019-01-28T02:52:32.360Z,4.90
2019-01-28T02:53:32.329Z,3.90
2019-01-28T02:54:32.358Z,3.50
2019-01-28T02:55:32.326Z,3.80
2019-01-28T02:56:32.315Z,5.00
2019-01-28T02:57:32.281Z,3.50
2019-01-28T02:58:32.276Z,3.90
2019-01-28T02:59:32.266Z,4.00
2019-01-28T03:00:32.270Z,4.40
2019-01-28T03:01:32.240Z,3.30
2019-01-28T03:02:32.241Z,3.70
2019-01-28T03:03:32.254Z,3.10
2019-01-28T03:04:32.203Z,4.00
2019-01-28T03:05:32.240Z,3.70
2019-01-28T03:06:32.202Z,4.20
2019-01-28T03:07:32.170Z,4.00
2019-01-28T03:08:32.161Z,3.60
2019-01-28T03:09:32.156Z,3.90
2019-01-28T03:10:32.161Z,3.40
2019-01-28T03:11:32.131Z,3.20
2019-01-28T03:12:40.810Z,4.40
2019-01-28T03:13:32.121Z,4.10
2019-01-28T03:14:32.096Z,4.40
2019-01-28T03:15:32.114Z,3.30
2019-01-28T03:16:32.074Z,3.60
2019-01-28T03:17:32.066Z,2.60
2019-01-28T03:18:32.063Z,3.70
2019-01-28T03:19:32.048Z,3.50
2019-01-28T03:20:32.030Z,3.70
2019-01-28T03:21:32.111Z,2.80
2019-01-28T03:22:32.005Z,2.60
2019-01-28T03:23:32.012Z,3.70
2019-01-28T03:24:32.009Z,2.70
2019-01-28T03:25:31.973Z,2.10
2019-01-28T03:26:31.966Z,2.50
2019-01-28T03:27:31.955Z,2.90
2019-01-28T03:28:31.946Z,2.60
2019-01-28T03:29:31.943Z,2.30
2019-01-28T03:30:31.963Z,2.30
2019-01-28T03:31:31.906Z,2.80
2019-01-28T03:32:31.901Z,2.30
2019-01-28T03:33:31.885Z,2.80
2019-01-28T03:34:31.889Z,4.30
2019-01-28T03:35:31.876Z,3.10
2019-01-28T03:36:31.856Z,3.60
2019-01-28T03:37:31.839Z,3.10
2019-01-28T03:38:31.873Z,3.40
2019-01-28T03:39:31.817Z,3.10
2019-01-28T03:40:31.821Z,3.10
2019-01-28T03:41:31.798Z,4.80
2019-01-28T03:42:31.785Z,2.50
2019-01-28T03:43:31.773Z,3.70
2019-01-28T03:44:31.779Z,2.90
2019-01-28T03:45:31.793Z,2.70
2019-01-28T03:46:31.756Z,3.10
2019-01-28T03:47:31.743Z,3.10
2019-01-28T03:48:31.726Z,2.60
2019-01-28T03:49:31.719Z,3.40
2019-01-28T03:50:31.698Z,2.20
2019-01-28T03:51:31.687Z,2.80
2019-01-28T03:52:31.694Z,2.80
2019-01-28T03:53:31.662Z,4.00
2019-01-28T03:54:31.651Z,2.90
2019-01-28T03:55:31.639Z,2.90
2019-01-28T03:56:31.627Z,3.40
2019-01-28T03:57:31.614Z,3.10
2019-01-28T03:58:31.656Z,3.60
2019-01-28T03:59:31.592Z,3.10
2019-01-28T04:00:31.583Z,2.20
2019-01-28T04:01:31.574Z,2.50
2019-01-28T04:02:31.559Z,2.70
2019-01-28T04:03:31.584Z,2.40
2019-01-28T04:04:31.557Z,3.10
2019-01-28T04:05:31.525Z,4.00
2019-01-28T04:06:31.515Z,3.20
2019-01-28T04:07:31.503Z,3.40
2019-01-28T04:08:31.493Z,2.70
2019-01-28T04:09:31.497Z,2.30
2019-01-28T04:10:31.497Z,2.60
2019-01-28T04:11:31.461Z,3.60
2019-01-28T04:12:31.453Z,3.30
2019-01-28T04:13:31.447Z,3.80
2019-01-28T04:14:31.426Z,3.80
2019-01-28T04:15:32.593Z,3.20
2019-01-28T04:16:31.404Z,3.70
2019-01-28T04:17:31.401Z,3.50
2019-01-28T04:18:31.387Z,3.50
2019-01-28T04:19:31.374Z,4.50
2019-01-28T04:20:31.390Z,3.50
2019-01-28T04:21:31.347Z,3.50
2019-01-28T04:22:31.335Z,4.10
2019-01-28T04:23:31.324Z,3.30
2019-01-28T04:24:31.321Z,3.80
2019-01-28T04:25:31.302Z,3.60
2019-01-28T04:26:31.308Z,3.90
2019-01-28T04:27:31.281Z,5.20
2019-01-28T04:28:31.271Z,3.90
2019-01-28T04:29:31.258Z,4.50
2019-01-28T04:30:31.302Z,3.40
2019-01-28T04:31:31.239Z,2.60
2019-01-28T04:32:31.259Z,3.50
2019-01-28T04:33:31.213Z,3.10
2019-01-28T04:34:31.225Z,3.40
2019-01-28T04:35:31.210Z,3.60
2019-01-28T04:36:31.189Z,3.90
2019-01-28T04:37:31.181Z,4.60
2019-01-28T04:38:31.173Z,4.60
2019-01-28T04:39:31.145Z,4.10
2019-01-28T04:40:31.138Z,3.60
2019-01-28T04:41:31.136Z,3.60
2019-01-28T04:42:31.114Z,4.90
2019-01-28T04:43:31.117Z,3.90
2019-01-28T04:44:31.122Z,3.70
2019-01-28T04:45:31.080Z,3.80
2019-01-28T04:46:31.070Z,4.20
2019-01-28T04:47:31.058Z,3.80
2019-01-28T04:48:31.044Z,3.90
2019-01-28T04:49:31.045Z,3.40
2019-01-28T04:50:31.055Z,5.40
2019-01-28T04:51:31.016Z,4.80
2019-01-28T04:52:31.001Z,4.00
2019-01-28T04:53:30.993Z,4.10
2019-01-28T04:54:31.003Z,4.00
2019-01-28T04:55:30.967Z,3.80
2019-01-28T04:56:30.962Z,7.10
2019-01-28T04:57:30.951Z,4.40
2019-01-28T04:58:30.937Z,5.00
2019-01-28T04:59:30.923Z,5.60
2019-01-28T05:00:30.925Z,4.00
2019-01-28T05:01:30.900Z,3.50
2019-01-28T05:02:30.889Z,3.50
2019-01-28T05:03:30.907Z,3.70
2019-01-28T05:04:30.871Z,3.50
2019-01-28T05:05:30.880Z,3.80
2019-01-28T05:06:30.847Z,3.40
2019-01-28T05:07:30.835Z,4.00
2019-01-28T05:08:30.825Z,5.00
2019-01-28T05:09:30.820Z,4.60
2019-01-28T05:10:30.802Z,5.60
2019-01-28T05:11:30.808Z,5.50
2019-01-28T05:12:30.777Z,6.70
2019-01-28T05:13:30.766Z,5.20
2019-01-28T05:14:30.754Z,4.80
2019-01-28T05:15:30.758Z,5.00
2019-01-28T05:16:30.748Z,5.40
2019-01-28T05:17:30.736Z,4.90
2019-01-28T05:18:30.712Z,6.30
2019-01-28T05:19:30.890Z,6.40
2019-01-28T05:20:30.688Z,6.60
2019-01-28T05:21:30.681Z,7.60
2019-01-28T05:22:30.714Z,5.50
2019-01-28T05:23:30.669Z,5.90
2019-01-28T05:24:30.644Z,5.40
2019-01-28T05:25:30.633Z,4.60
2019-01-28T05:26:30.622Z,6.20
2019-01-28T05:27:30.612Z,6.70
2019-01-28T05:28:30.652Z,7.70
2019-01-28T05:29:30.593Z,6.60
2019-01-28T05:30:30.582Z,7.50
2019-01-28T05:31:30.570Z,10.10
2019-01-28T05:32:30.555Z,10.60
2019-01-28T05:33:30.563Z,8.10
2019-01-28T05:34:30.538Z,7.40
2019-01-28T05:35:30.521Z,8.00
2019-01-28T05:36:30.514Z,8.00
2019-01-28T05:37:30.540Z,7.10
2019-01-28T05:38:30.489Z,8.70
2019-01-28T05:39:30.492Z,6.60
2019-01-28T05:40:30.487Z,8.40
2019-01-28T05:41:30.454Z,6.30
2019-01-28T05:42:30.447Z,6.50
2019-01-28T05:43:30.434Z,6.50
2019-01-28T05:44:30.448Z,8.00
2019-01-28T05:45:30.423Z,5.20
2019-01-28T05:46:30.420Z,6.30
2019-01-28T05:47:30.391Z,7.40
2019-01-28T05:48:30.377Z,5.30
2019-01-28T05:49:30.371Z,5.80
2019-01-28T05:50:30.378Z,7.30
2019-01-28T05:51:30.346Z,7.90
2019-01-28T05:52:30.342Z,7.60
2019-01-28T05:53:30.324Z,12.30
2019-01-28T05:54:30.310Z,7.30
2019-01-28T05:55:30.302Z,8.40
2019-01-28T05:56:30.315Z,5.90
2019-01-28T05:57:30.277Z,7.00
2019-01-28T05:58:30.276Z,9.70
2019-01-28T05:59:30.257Z,8.10
2019-01-28T06:00:30.244Z,9.10
2019-01-28T06:01:30.240Z,8.80
2019-01-28T06:02:30.232Z,8.80
2019-01-28T06:03:30.217Z,8.70
2019-01-28T06:04:30.255Z,7.50
2019-01-28T06:05:30.191Z,7.80
2019-01-28T06:06:30.183Z,7.40
2019-01-28T06:07:30.167Z,9.10
2019-01-28T06:08:30.178Z,7.50
2019-01-28T06:09:30.151Z,7.60
2019-01-28T06:10:30.145Z,7.90
2019-01-28T06:11:30.132Z,8.20
2019-01-28T06:12:30.117Z,8.00
2019-01-28T06:13:30.105Z,8.00
2019-01-28T06:14:30.091Z,8.20
2019-01-28T06:15:30.098Z,9.20
2019-01-28T06:16:30.067Z,7.80
2019-01-28T06:17:30.064Z,10.40
2019-01-28T06:18:30.046Z,7.60
2019-01-28T06:19:30.034Z,9.30
2019-01-28T06:20:30.023Z,9.10
2019-01-28T06:21:30.025Z,8.30
2019-01-28T06:22:30.001Z,9.30
2019-01-28T06:23:30.011Z,8.50
2019-01-28T06:24:30.002Z,6.30
2019-01-28T06:25:29.973Z,9.90
2019-01-28T06:26:29.969Z,6.60
2019-01-28T06:27:29.947Z,7.30
2019-01-28T06:28:29.938Z,8.30
2019-01-28T06:29:29.945Z,8.20
2019-01-28T06:30:29.913Z,8.70
2019-01-28T06:31:29.902Z,8.00
2019-01-28T06:32:29.904Z,7.30
2019-01-28T06:33:29.892Z,10.00
2019-01-28T06:34:29.887Z,7.50
2019-01-28T06:35:29.867Z,8.10
2019-01-28T06:36:29.858Z,9.80
2019-01-28T06:37:29.835Z,8.20
2019-01-28T06:38:29.822Z,8.00
2019-01-28T06:39:29.827Z,8.20
2019-01-28T06:40:29.802Z,8.00
2019-01-28T06:41:29.790Z,8.20
2019-01-28T06:42:29.789Z,8.60
2019-01-28T06:43:29.768Z,8.50
2019-01-28T06:44:29.757Z,8.70
2019-01-28T06:45:29.756Z,7.50
2019-01-28T06:46:29.738Z,9.30
2019-01-28T06:47:29.725Z,10.50
2019-01-28T06:48:29.724Z,9.30
2019-01-28T06:49:29.713Z,9.20
2019-01-28T06:50:29.703Z,8.20
2019-01-28T06:51:29.678Z,9.30
2019-01-28T06:52:29.667Z,7.60
2019-01-28T06:53:29.660Z,10.20
2019-01-28T06:54:29.646Z,9.90
2019-01-28T06:55:29.639Z,9.30
2019-01-28T06:56:29.640Z,9.00
2019-01-28T06:57:29.628Z,8.60
2019-01-28T06:58:29.619Z,8.00
2019-01-28T06:59:29.594Z,10.00
2019-01-28T07:00:29.583Z,9.40
2019-01-28T07:01:29.583Z,8.50
2019-01-28T07:02:29.571Z,7.20
2019-01-28T07:03:29.566Z,7.50
2019-01-28T07:04:29.550Z,7.70
2019-01-28T07:05:29.530Z,10.10
2019-01-28T07:06:29.521Z,9.00
2019-01-28T07:07:29.520Z,6.90
2019-01-28T07:08:29.520Z,6.00
2019-01-28T07:09:29.487Z,6.30
2019-01-28T07:10:29.491Z,7.90
2019-01-28T07:11:29.468Z,6.10
2019-01-28T07:12:29.453Z,5.60
2019-01-28T07:13:29.455Z,5.70
2019-01-28T07:14:29.440Z,7.80
2019-01-28T07:15:29.434Z,6.50
2019-01-28T07:16:29.411Z,7.90
2019-01-28T07:17:29.398Z,6.30
2019-01-28T07:18:29.383Z,6.60
2019-01-28T07:19:31.276Z,6.10
2019-01-28T07:20:29.362Z,6.60
2019-01-28T07:21:29.365Z,6.40
2019-01-28T07:22:29.340Z,6.00
2019-01-28T07:23:29.331Z,4.70
2019-01-28T07:24:29.332Z,6.10
2019-01-28T07:25:29.306Z,5.20
2019-01-28T07:26:29.305Z,4.90
2019-01-28T07:27:29.314Z,7.40
2019-01-28T07:28:29.287Z,5.40
2019-01-28T07:29:29.265Z,5.30
2019-01-28T07:30:29.267Z,6.00
2019-01-28T07:31:29.240Z,5.60
2019-01-28T07:32:29.242Z,5.80
2019-01-28T07:33:29.222Z,6.20
2019-01-28T07:34:29.209Z,4.90
2019-01-28T07:35:29.219Z,4.60
2019-01-28T07:36:29.191Z,3.60
2019-01-28T07:37:29.181Z,5.20
2019-01-28T07:38:29.162Z,7.40
2019-01-28T07:39:29.155Z,4.90
2019-01-28T07:40:29.149Z,5.40
2019-01-28T07:41:29.164Z,5.80
2019-01-28T07:42:29.143Z,5.50
2019-01-28T07:43:29.127Z,5.70
2019-01-28T07:44:29.098Z,4.20
2019-01-28T07:45:29.088Z,5.30
2019-01-28T07:46:29.081Z,5.80
2019-01-28T07:47:29.099Z,7.60
2019-01-28T07:48:29.064Z,7.30
2019-01-28T07:49:29.068Z,7.60
2019-01-28T07:50:29.085Z,7.00
2019-01-28T07:51:29.022Z,7.60
2019-01-28T07:52:29.025Z,8.70
2019-01-28T07:53:29.010Z,7.10
2019-01-28T07:54:29.004Z,10.70
2019-01-28T07:55:28.982Z,12.30
2019-01-28T07:56:29.001Z,7.20
2019-01-28T07:57:28.953Z,8.20
2019-01-28T07:58:28.944Z,9.10
2019-01-28T07:59:28.941Z,9.10
2019-01-28T08:00:28.936Z,9.60
2019-01-28T08:01:28.920Z,8.20
2019-01-28T08:02:28.907Z,9.60
2019-01-28T08:03:28.888Z,8.00
2019-01-28T08:04:28.880Z,11.20
2019-01-28T08:05:28.869Z,7.60
2019-01-28T08:06:28.874Z,9.80
2019-01-28T08:07:28.848Z,6.30
2019-01-28T08:08:28.837Z,9.50
2019-01-28T08:09:28.831Z,7.00
2019-01-28T08:10:28.812Z,8.80
2019-01-28T08:11:28.821Z,7.80
2019-01-28T08:12:28.810Z,8.50
2019-01-28T08:13:28.785Z,8.50
2019-01-28T08:14:28.770Z,8.30
2019-01-28T08:15:28.792Z,10.20
2019-01-28T08:16:28.744Z,8.90
2019-01-28T08:17:28.735Z,9.80
2019-01-28T08:18:28.751Z,9.20
2019-01-28T08:19:28.714Z,8.90
2019-01-28T08:20:28.702Z,7.80
2019-01-28T08:21:28.689Z,9.00
2019-01-28T08:22:28.689Z,7.70
2019-01-28T08:23:28.669Z,9.60
2019-01-28T08:24:28.670Z,8.10
2019-01-28T08:25:28.647Z,9.80
2019-01-28T08:26:28.654Z,8.20
2019-01-28T08:27:28.663Z,8.30
2019-01-28T08:28:28.607Z,8.00
2019-01-28T08:29:28.615Z,8.60
2019-01-28T08:30:28.614Z,8.30
2019-01-28T08:31:28.584Z,8.40
2019-01-28T08:32:28.564Z,7.20
2019-01-28T08:33:28.563Z,7.20
2019-01-28T08:34:28.542Z,7.60
2019-01-28T08:35:28.533Z,6.90
2019-01-28T08:36:28.539Z,7.30
2019-01-28T08:37:28.508Z,6.40
2019-01-28T08:38:28.500Z,8.90
2019-01-28T08:39:28.488Z,6.80
2019-01-28T08:40:28.478Z,7.00
2019-01-28T08:41:28.513Z,9.00
2019-01-28T08:42:28.463Z,9.00
2019-01-28T08:43:28.448Z,6.30
2019-01-28T08:44:28.430Z,6.50
2019-01-28T08:45:28.420Z,7.40
2019-01-28T08:46:30.225Z,6.60
2019-01-28T08:47:28.403Z,7.60
2019-01-28T08:48:28.384Z,6.00
2019-01-28T08:49:28.378Z,6.00
2019-01-28T08:50:28.366Z,5.20
2019-01-28T08:51:28.355Z,4.50
2019-01-28T08:52:28.368Z,3.60
2019-01-28T08:53:28.358Z,4.80
2019-01-28T08:54:28.322Z,3.90
2019-01-28T08:55:28.310Z,3.90
2019-01-28T08:56:28.298Z,4.70
2019-01-28T08:57:28.287Z,4.10
2019-01-28T08:58:28.299Z,3.90
2019-01-28T08:59:28.274Z,5.20
2019-01-28T09:00:28.290Z,4.10
2019-01-28T09:01:28.247Z,5.30
2019-01-28T09:02:28.236Z,4.00
2019-01-28T09:03:28.225Z,4.10
2019-01-28T09:04:28.223Z,5.50
2019-01-28T09:05:28.210Z,4.90
2019-01-28T09:06:28.189Z,4.30
2019-01-28T09:07:28.176Z,4.00
2019-01-28T09:08:28.167Z,3.30
2019-01-28T09:09:28.166Z,3.90
2019-01-28T09:10:28.143Z,3.60
2019-01-28T09:11:28.137Z,3.60
2019-01-28T09:12:28.140Z,5.60
2019-01-28T09:13:28.122Z,6.50
2019-01-28T09:14:28.102Z,8.10
2019-01-28T09:15:28.102Z,6.30
2019-01-28T09:16:28.077Z,6.80
2019-01-28T09:17:28.068Z,5.90
2019-01-28T09:18:28.071Z,7.20
2019-01-28T09:19:28.051Z,8.00
2019-01-28T09:20:28.044Z,10.20
2019-01-28T09:21:28.045Z,8.90
2019-01-28T09:22:28.018Z,10.60
2019-01-28T09:23:28.005Z,9.40
2019-01-28T09:24:28.003Z,8.60
2019-01-28T09:25:28.031Z,7.10
2019-01-28T09:26:27.984Z,6.60
2019-01-28T09:27:27.957Z,9.90
2019-01-28T09:28:27.941Z,10.40
2019-01-28T09:29:27.931Z,9.20
2019-01-28T09:30:27.918Z,8.80
2019-01-28T09:31:27.908Z,10.10
2019-01-28T09:32:27.911Z,8.90
2019-01-28T09:33:27.888Z,6.40
2019-01-28T09:34:27.874Z,7.90
2019-01-28T09:35:27.872Z,7.50
2019-01-28T09:36:27.855Z,7.80
2019-01-28T09:37:27.904Z,8.70
2019-01-28T09:38:27.889Z,9.10
2019-01-28T09:39:27.872Z,7.20
2019-01-28T09:40:27.827Z,8.50
2019-01-28T09:41:27.798Z,8.10
2019-01-28T09:42:27.828Z,7.50
2019-01-28T09:43:27.779Z,8.40
2019-01-28T09:44:27.780Z,7.50
2019-01-28T09:45:27.770Z,8.40
2019-01-28T09:46:27.751Z,7.80
2019-01-28T09:47:27.768Z,7.80
2019-01-28T09:48:34.237Z,7.50
2019-01-28T09:49:28.718Z,9.40
2019-01-28T09:50:27.731Z,11.50
2019-01-28T09:51:27.690Z,9.90
2019-01-28T09:52:27.681Z,8.80
2019-01-28T09:53:29.478Z,10.20
2019-01-28T09:54:27.689Z,9.60
2019-01-28T09:55:27.660Z,12.80
2019-01-28T09:56:27.641Z,9.70
2019-01-28T09:57:27.638Z,17.80
2019-01-28T09:58:27.622Z,12.50
2019-01-28T09:59:27.637Z,12.00
2019-01-28T10:00:27.625Z,15.50
2019-01-28T10:01:27.593Z,10.10
2019-01-28T10:02:27.575Z,8.30
2019-01-28T10:03:27.572Z,7.70
2019-01-28T10:04:27.547Z,7.70
2019-01-28T10:05:27.537Z,10.40
2019-01-28T10:06:27.548Z,11.10
2019-01-28T10:07:27.517Z,11.20
2019-01-28T10:08:27.504Z,11.60
2019-01-28T10:09:27.542Z,10.60
2019-01-28T10:10:27.494Z,13.20
2019-01-28T10:11:27.473Z,12.70
2019-01-28T10:12:27.491Z,9.30
2019-01-28T10:13:27.467Z,8.20
2019-01-28T10:14:27.480Z,8.10
2019-01-28T10:15:28.985Z,11.20
2019-01-28T10:16:27.416Z,11.80
2019-01-28T10:17:27.405Z,13.20
2019-01-28T10:18:27.415Z,10.10
2019-01-28T10:19:27.426Z,12.60
2019-01-28T10:20:27.373Z,10.00
2019-01-28T10:21:27.393Z,9.00
2019-01-28T10:22:27.347Z,13.80
2019-01-28T10:23:27.339Z,13.00
2019-01-28T10:24:27.379Z,12.20
2019-01-28T10:25:27.314Z,8.40
2019-01-28T10:26:27.319Z,9.60
2019-01-28T10:27:27.305Z,8.20
2019-01-28T10:28:27.280Z,8.60
2019-01-28T10:29:27.288Z,6.10
2019-01-28T10:30:27.286Z,6.50
2019-01-28T10:31:27.289Z,6.40
2019-01-28T10:32:27.240Z,5.20
2019-01-28T10:33:27.236Z,6.40
2019-01-28T10:34:27.219Z,8.30
2019-01-28T10:35:27.297Z,8.20
2019-01-28T10:36:27.232Z,10.10
2019-01-28T10:37:27.209Z,14.40
2019-01-28T10:38:27.170Z,10.60
2019-01-28T10:39:27.178Z,9.00
2019-01-28T10:40:27.163Z,8.50
2019-01-28T10:41:27.157Z,10.10
2019-01-28T10:42:27.134Z,7.00
2019-01-28T10:43:27.119Z,6.50
2019-01-28T10:44:27.102Z,5.80
2019-01-28T10:45:27.102Z,7.60
2019-01-28T10:46:27.077Z,6.00
2019-01-28T10:47:27.078Z,4.50
2019-01-28T10:48:27.091Z,6.90
2019-01-28T10:49:27.046Z,6.70
2019-01-28T10:50:27.036Z,5.40
2019-01-28T10:51:27.036Z,8.20
2019-01-28T10:52:27.058Z,6.10
2019-01-28T10:53:27.017Z,5.60
2019-01-28T10:54:27.032Z,9.00
2019-01-28T10:55:26.981Z,7.30
2019-01-28T10:56:26.970Z,6.90
2019-01-28T10:57:26.967Z,5.50
2019-01-28T10:58:26.945Z,5.70
2019-01-28T10:59:26.975Z,6.00
2019-01-28T11:00:26.932Z,4.10
2019-01-28T11:01:26.957Z,8.60
2019-01-28T11:02:26.903Z,3.10
2019-01-28T11:03:26.902Z,4.30
2019-01-28T11:04:34.418Z,4.30
2019-01-28T11:05:26.870Z,4.40
2019-01-28T11:06:26.856Z,5.70
2019-01-28T11:07:26.874Z,5.40
2019-01-28T11:08:26.835Z,3.90
2019-01-28T11:09:26.845Z,4.00
2019-01-28T11:10:26.847Z,3.90
2019-01-28T11:11:26.919Z,5.10
2019-01-28T11:12:26.798Z,5.90
2019-01-28T11:13:26.859Z,6.10
2019-01-28T11:14:26.797Z,6.20
2019-01-28T11:15:26.772Z,5.30
2019-01-28T11:16:26.772Z,3.90
2019-01-28T11:17:26.784Z,4.20
2019-01-28T11:18:26.757Z,2.00
2019-01-28T11:19:26.723Z,3.10
2019-01-28T11:20:26.733Z,3.10
2019-01-28T11:21:26.793Z,3.80
2019-01-28T11:22:26.678Z,3.10
2019-01-28T11:23:26.702Z,3.20
2019-01-28T11:24:26.825Z,3.00
2019-01-28T11:25:26.775Z,4.90
2019-01-28T11:26:26.759Z,3.00
2019-01-28T11:27:26.641Z,4.80
2019-01-28T11:28:26.717Z,3.70
2019-01-28T11:29:26.633Z,2.70
2019-01-28T11:30:26.600Z,4.30
2019-01-28T11:31:26.706Z,4.00
2019-01-28T11:32:26.605Z,3.80
2019-01-28T11:33:26.718Z,3.70
2019-01-28T11:34:26.584Z,3.60
2019-01-28T11:35:26.557Z,2.30
2019-01-28T11:36:26.661Z,2.80
2019-01-28T11:37:26.660Z,3.30
2019-01-28T11:38:26.560Z,2.50
2019-01-28T11:39:26.539Z,2.30
2019-01-28T11:40:26.479Z,2.00
2019-01-28T11:41:26.514Z,4.30
2019-01-28T11:42:26.550Z,2.70
2019-01-28T11:43:26.587Z,3.20
2019-01-28T11:44:26.469Z,3.30
2019-01-28T11:45:26.464Z,4.30
2019-01-28T11:46:26.412Z,3.20
2019-01-28T11:47:26.554Z,2.70
2019-01-28T11:48:26.526Z,3.60
2019-01-28T11:49:26.517Z,3.70
2019-01-28T11:50:26.392Z,3.30
2019-01-28T11:51:26.358Z,2.80
2019-01-28T11:52:26.350Z,2.20
2019-01-28T11:53:26.344Z,2.50
2019-01-28T11:54:26.329Z,2.20
2019-01-28T11:55:26.333Z,3.70
2019-01-28T11:56:26.326Z,2.20
2019-01-28T11:57:26.295Z,1.40
2019-01-28T11:58:26.283Z,1.50
2019-01-28T11:59:26.272Z,1.90
2019-01-28T12:00:26.257Z,4.40
2019-01-28T12:01:26.249Z,7.20
2019-01-28T12:02:34.034Z,5.70
2019-01-28T12:03:27.227Z,7.30
2019-01-28T12:04:26.233Z,5.20
2019-01-28T12:05:26.208Z,2.10
2019-01-28T12:06:26.194Z,2.80
2019-01-28T12:07:26.189Z,1.90
2019-01-28T12:08:26.178Z,1.60
2019-01-28T12:09:26.166Z,1.50
2019-01-28T12:10:26.193Z,0.90
2019-01-28T12:11:26.150Z,1.60
2019-01-28T12:12:26.147Z,2.20
2019-01-28T12:13:26.134Z,2.10
2019-01-28T12:14:26.103Z,1.20
2019-01-28T12:15:26.110Z,1.20
2019-01-28T12:16:26.092Z,2.40
2019-01-28T12:17:26.065Z,1.90
2019-01-28T12:18:26.062Z,1.40
2019-01-28T12:19:26.105Z,1.90
2019-01-28T12:20:26.037Z,1.50
2019-01-28T12:21:26.044Z,3.40
2019-01-28T12:22:26.074Z,2.50
2019-01-28T12:23:26.003Z,1.70
2019-01-28T12:24:26.006Z,1.00
2019-01-28T12:25:25.981Z,3.00
2019-01-28T12:26:25.975Z,1.40
2019-01-28T12:27:25.979Z,1.80
2019-01-28T12:28:26.033Z,3.00
2019-01-28T12:29:25.979Z,1.70
2019-01-28T12:30:25.937Z,1.40
2019-01-28T12:31:25.940Z,1.40
2019-01-28T12:32:25.922Z,2.20
2019-01-28T12:33:25.896Z,2.50
2019-01-28T12:34:25.880Z,1.90
2019-01-28T12:35:25.867Z,2.90
2019-01-28T12:36:25.884Z,3.70
2019-01-28T12:37:25.848Z,2.10
2019-01-28T12:38:25.855Z,2.30
2019-01-28T12:39:25.851Z,2.30
2019-01-28T12:40:25.827Z,4.00
2019-01-28T12:41:25.802Z,4.00
2019-01-28T12:42:25.793Z,3.10
2019-01-28T12:43:25.779Z,2.90
2019-01-28T12:44:25.822Z,2.10
2019-01-28T12:45:25.758Z,2.50
2019-01-28T12:46:25.762Z,3.10
2019-01-28T12:47:25.746Z,2.10
2019-01-28T12:48:25.723Z,3.20
2019-01-28T12:49:25.714Z,4.70
2019-01-28T12:50:25.717Z,2.70
2019-01-28T12:51:25.745Z,1.60
2019-01-28T12:52:25.682Z,3.80
2019-01-28T12:53:25.670Z,2.90
2019-01-28T12:54:25.661Z,2.40
2019-01-28T12:55:25.676Z,3.80
2019-01-28T12:56:25.648Z,3.20
2019-01-28T12:57:25.642Z,2.20
2019-01-28T12:58:25.685Z,4.50
2019-01-28T12:59:25.607Z,2.50
2019-01-28T13:00:25.644Z,1.90
2019-01-28T13:01:25.588Z,2.10
2019-01-28T13:02:25.607Z,2.50
2019-01-28T13:03:25.571Z,3.20
2019-01-28T13:04:25.561Z,2.60
2019-01-28T13:05:25.536Z,2.30
2019-01-28T13:06:25.555Z,3.90
2019-01-28T13:07:25.514Z,4.80
2019-01-28T13:08:25.523Z,4.30
2019-01-28T13:09:25.497Z,5.50
2019-01-28T13:10:25.498Z,4.60
2019-01-28T13:11:25.496Z,5.90
2019-01-28T13:12:25.465Z,4.20
2019-01-28T13:13:25.450Z,3.80
2019-01-28T13:14:25.454Z,3.00
2019-01-28T13:15:25.431Z,3.50
2019-01-28T13:16:25.443Z,4.60